Time;durP1;ratioP1;P1;durP2;ratioP2;P2;SDS_P1;SDS_P2;PMS_P1;PMS_P2;Temp;Humidity;BMP_temperature;BMP_pressure;BME280_temperature;BME280_humidity;BME280_pressure;Samples;Min_cycle;Max_cycle;Signal;HPM_P1;HPM_P2
2023/12/03 00:02:08;;;;;;;13.32;6.93;;;-3.10;99.90;;;;;;4965745;28;20107;-76
2023/12/03 00:04:36;;;;;;;16.40;7.40;;;-3.10;99.90;;;;;;4947917;28;20098;-76
2023/12/03 00:07:02;;;;;;;13.73;6.82;;;-3.00;99.90;;;;;;4964912;28;20049;-76
2023/12/03 00:09:28;;;;;;;15.85;7.30;;;-3.00;99.90;;;;;;4964176;28;20070;-76
2023/12/03 00:11:53;;;;;;;17.10;7.38;;;-3.00;99.90;;;;;;4948384;29;20020;-76
2023/12/03 00:14:19;;;;;;;14.23;6.72;;;-2.90;99.90;;;;;;4965408;28;20027;-76
2023/12/03 00:16:44;;;;;;;12.30;6.90;;;-2.00;99.90;;;;;;4948138;29;20099;-76
2023/12/03 00:19:10;;;;;;;12.07;5.88;;;-3.00;99.90;;;;;;4965403;28;20023;-76
2023/12/03 00:21:36;;;;;;;15.55;7.03;;;-3.00;99.90;;;;;;4965884;28;20219;-76
2023/12/03 00:24:02;;;;;;;14.07;6.45;;;-3.00;99.90;;;;;;4947556;29;20226;-76
2023/12/03 00:26:27;;;;;;;11.93;6.38;;;-2.90;99.90;;;;;;4965202;28;20033;-76
2023/12/03 00:28:53;;;;;;;12.75;7.00;;;-2.30;99.90;;;;;;4964863;28;20099;-76
2023/12/03 00:31:18;;;;;;;10.85;6.00;;;-2.90;99.90;;;;;;4965450;28;20026;-76
2023/12/03 00:33:44;;;;;;;12.15;6.72;;;-2.90;99.90;;;;;;4947630;28;20330;-77
2023/12/03 00:36:10;;;;;;;12.52;6.20;;;-2.70;99.90;;;;;;4965234;28;20031;-76
2023/12/03 00:38:36;;;;;;;15.48;7.53;;;-2.90;99.90;;;;;;4947704;28;20027;-76
2023/12/03 00:41:01;;;;;;;10.73;6.18;;;-2.90;99.90;;;;;;4965194;28;20333;-76
2023/12/03 00:43:27;;;;;;;14.73;6.45;;;-2.80;99.90;;;;;;4964973;28;20083;-76
2023/12/03 00:45:53;;;;;;;15.23;7.75;;;-2.30;99.90;;;;;;4964700;28;20034;-77
2023/12/03 00:48:19;;;;;;;11.45;5.88;;;-2.70;99.90;;;;;;4947742;29;20047;-76
2023/12/03 00:50:45;;;;;;;13.93;6.97;;;-2.80;99.90;;;;;;4964508;28;20031;-76
2023/12/03 00:53:10;;;;;;;13.50;5.70;;;-2.90;99.90;;;;;;4947760;28;20054;-76
2023/12/03 00:55:36;;;;;;;17.55;6.60;;;-2.90;99.90;;;;;;4948172;28;20027;-76
2023/12/03 00:58:01;;;;;;;10.95;5.80;;;-2.30;99.90;;;;;;4964855;28;20073;-76
2023/12/03 01:00:27;;;;;;;11.90;6.10;;;-2.50;99.90;;;;;;4965084;28;20307;-76
2023/12/03 01:02:53;;;;;;;9.15;5.55;;;-2.00;99.90;;;;;;4964928;28;20066;-76
2023/12/03 01:05:18;;;;;;;13.93;6.28;;;-1.40;99.90;;;;;;4965145;28;20035;-75
2023/12/03 01:07:44;;;;;;;12.68;6.03;;;-3.00;99.90;;;;;;4948278;28;20016;-76
2023/12/03 01:10:09;;;;;;;10.43;5.40;;;-3.10;99.90;;;;;;4963252;28;20099;-76
2023/12/03 01:12:35;;;;;;;11.32;6.28;;;-3.10;99.90;;;;;;4948201;29;20019;-76
2023/12/03 01:15:01;;;;;;;12.25;6.10;;;-3.10;99.90;;;;;;4964912;28;20031;-76
2023/12/03 01:17:27;;;;;;;13.15;6.35;;;-3.20;99.90;;;;;;4965560;28;20041;-76
2023/12/03 01:19:52;;;;;;;13.40;6.30;;;-3.10;99.90;;;;;;4947499;28;20323;-77
2023/12/03 01:22:18;;;;;;;13.23;5.75;;;-3.10;99.90;;;;;;4947546;28;20421;-76
2023/12/03 01:24:44;;;;;;;12.85;6.00;;;-3.20;99.90;;;;;;4963896;28;20265;-76
2023/12/03 01:27:10;;;;;;;13.45;6.55;;;-3.50;99.90;;;;;;4950447;29;20034;-77
2023/12/03 01:29:35;;;;;;;8.82;5.15;;;-3.70;99.90;;;;;;4967316;28;20231;-76
2023/12/03 01:32:01;;;;;;;11.63;5.25;;;-3.90;99.90;;;;;;4967611;28;20279;-76
2023/12/03 01:34:27;;;;;;;10.57;5.50;;;-4.10;99.90;;;;;;4950749;28;20065;-77
2023/12/03 01:36:52;;;;;;;11.65;6.15;;;-3.80;99.90;;;;;;4950829;28;20030;-76
2023/12/03 01:39:18;;;;;;;10.45;5.40;;;-4.40;99.90;;;;;;4967521;28;20380;-76
2023/12/03 01:41:44;;;;;;;14.48;7.43;;;-4.60;99.90;;;;;;4967534;28;20031;-76
2023/12/03 01:44:09;;;;;;;11.82;5.47;;;-4.70;99.90;;;;;;4967252;28;20327;-77
2023/12/03 01:46:35;;;;;;;13.18;6.05;;;-4.30;99.90;;;;;;4948921;29;20023;-76
2023/12/03 01:49:01;;;;;;;13.07;6.22;;;-4.90;99.90;;;;;;4948304;29;20227;-76
2023/12/03 01:51:27;;;;;;;11.52;6.13;;;-5.10;99.90;;;;;;4966983;28;20035;-76
2023/12/03 01:53:54;;;;;;;13.95;6.22;;;-5.30;99.90;;;;;;4949851;28;20031;-75
2023/12/03 01:56:20;;;;;;;8.45;4.70;;;-5.40;99.90;;;;;;4967582;28;20123;-76
2023/12/03 01:58:46;;;;;;;10.60;5.40;;;-5.00;99.90;;;;;;4950459;28;20031;-77
2023/12/03 02:01:12;;;;;;;11.27;5.18;;;-5.80;99.90;;;;;;4967228;28;20116;-77
2023/12/03 02:03:37;;;;;;;12.38;6.28;;;-5.90;99.90;;;;;;4967075;28;20019;-76
2023/12/03 02:06:10;;;;;;;10.15;6.03;;;-6.10;99.90;;;;;;4949931;28;20254;-77
2023/12/03 02:08:36;;;;;;;11.55;5.57;;;-6.30;99.90;;;;;;4949766;29;20019;-76
2023/12/03 02:11:03;;;;;;;16.85;5.95;;;-6.40;99.90;;;;;;4967244;28;20027;-76
2023/12/03 02:13:32;;;;;;;12.70;5.80;;;-6.50;99.90;;;;;;4967026;28;20257;-76
2023/12/03 02:15:58;;;;;;;12.80;6.10;;;-6.40;99.90;;;;;;4950323;29;20124;-77
2023/12/03 02:18:27;;;;;;;12.05;6.15;;;-6.40;99.90;;;;;;4967317;28;20362;-77
2023/12/03 02:20:55;;;;;;;13.13;6.15;;;-6.50;99.90;;;;;;4967206;28;20140;-76
2023/12/03 02:23:20;;;;;;;14.45;5.90;;;-6.70;99.90;;;;;;4966262;28;20090;-77
2023/12/03 02:25:48;;;;;;;15.10;5.53;;;-6.90;99.90;;;;;;4949722;28;20307;-76
2023/12/03 02:28:14;;;;;;;13.60;5.97;;;-7.00;99.90;;;;;;4949413;29;20053;-76
2023/12/03 02:30:41;;;;;;;12.82;5.75;;;-7.20;99.90;;;;;;4966789;28;20335;-76
2023/12/03 02:33:06;;;;;;;8.95;5.30;;;-7.40;99.90;;;;;;4949200;28;20303;-77
2023/12/03 02:35:32;;;;;;;12.70;5.32;;;-7.50;99.90;;;;;;4966487;28;20086;-76
2023/12/03 02:37:58;;;;;;;13.70;6.03;;;-7.60;99.90;;;;;;4966253;28;20207;-76
2023/12/03 02:40:23;;;;;;;10.35;4.93;;;-7.70;99.90;;;;;;4966273;29;20101;-77
2023/12/03 02:42:49;;;;;;;16.40;7.25;;;-7.60;99.90;;;;;;4966553;28;20041;-76
2023/12/03 02:45:14;;;;;;;12.27;5.72;;;-7.50;99.90;;;;;;4949297;29;20027;-76
2023/12/03 02:47:40;;;;;;;16.30;6.03;;;-7.50;99.90;;;;;;4949241;29;20024;-76
2023/12/03 02:50:06;;;;;;;14.98;6.43;;;-7.50;99.90;;;;;;4966180;28;20122;-78
2023/12/03 02:52:32;;;;;;;13.95;5.93;;;-7.50;99.90;;;;;;4965988;28;20051;-76
2023/12/03 02:54:57;;;;;;;10.88;5.35;;;-7.50;99.90;;;;;;4966134;28;20032;-76
2023/12/03 02:57:23;;;;;;;13.07;5.68;;;-7.60;99.90;;;;;;4949475;28;20042;-76
2023/12/03 02:59:48;;;;;;;10.25;5.10;;;-7.70;99.90;;;;;;4966129;28;20062;-76
2023/12/03 03:02:14;;;;;;;10.25;5.18;;;-7.90;99.90;;;;;;4965731;28;20031;-76
2023/12/03 03:04:40;;;;;;;12.52;6.00;;;-7.90;99.90;;;;;;4948176;28;20102;-76
2023/12/03 03:07:05;;;;;;;16.63;6.97;;;-8.00;99.90;;;;;;4948757;28;20264;-76
2023/12/03 03:09:31;;;;;;;9.55;4.97;;;-8.00;99.90;;;;;;4965658;28;20043;-75
2023/12/03 03:11:57;;;;;;;10.25;5.10;;;-8.10;99.90;;;;;;4965812;28;20312;-76
2023/12/03 03:14:24;;;;;;;11.13;4.88;;;-8.30;99.90;;;;;;4965405;28;20031;-76
2023/12/03 03:16:50;;;;;;;11.82;5.05;;;-8.30;99.90;;;;;;4965713;28;20236;-78
2023/12/03 03:19:15;;;;;;;11.07;5.10;;;-8.20;99.90;;;;;;4965438;28;20027;-77
2023/12/03 03:21:41;;;;;;;12.20;4.40;;;-8.30;99.90;;;;;;4965750;28;20027;-77
2023/12/03 03:24:07;;;;;;;12.90;4.57;;;-8.40;99.90;;;;;;4948215;28;20085;-76
2023/12/03 03:26:33;;;;;;;10.65;4.78;;;-8.30;99.90;;;;;;4965764;28;20023;-77
2023/12/03 03:28:59;;;;;;;13.18;4.78;;;-8.30;99.90;;;;;;4965023;28;20027;-77
2023/12/03 03:31:24;;;;;;;10.40;6.55;;;-8.40;99.90;;;;;;4965356;28;20070;-76
2023/12/03 03:33:50;;;;;;;11.05;5.03;;;-8.40;99.90;;;;;;4965127;28;20030;-76
2023/12/03 03:36:16;;;;;;;9.85;4.50;;;-8.30;99.90;;;;;;4948374;29;20031;-76
2023/12/03 03:38:44;;;;;;;13.82;5.22;;;-8.30;99.90;;;;;;4965551;28;20023;-77
2023/12/03 03:41:10;;;;;;;10.00;4.97;;;-8.40;99.90;;;;;;4964047;28;20078;-76
2023/12/03 03:43:36;;;;;;;10.40;5.18;;;-8.50;99.90;;;;;;4964773;28;20030;-76
2023/12/03 03:46:02;;;;;;;9.63;4.15;;;-8.50;99.90;;;;;;4965301;28;20086;-76
2023/12/03 03:48:27;;;;;;;8.10;4.68;;;-8.50;99.90;;;;;;4946999;29;20054;-76
2023/12/03 03:50:53;;;;;;;10.68;4.20;;;-8.50;99.90;;;;;;4947659;28;20098;-76
2023/12/03 03:53:19;;;;;;;12.07;4.97;;;-8.50;99.90;;;;;;4964964;28;20314;-77
2023/12/03 03:55:44;;;;;;;9.27;4.22;;;-8.60;99.90;;;;;;4965610;28;20050;-77
2023/12/03 03:58:10;;;;;;;9.10;3.85;;;-8.60;99.90;;;;;;4965322;28;20063;-75
2023/12/03 04:00:35;;;;;;;8.43;4.18;;;-8.70;99.90;;;;;;4965885;28;20098;-78
2023/12/03 04:03:01;;;;;;;8.05;4.32;;;-8.60;99.90;;;;;;4948032;28;20079;-76
2023/12/03 04:05:27;;;;;;;13.10;5.28;;;-8.60;99.90;;;;;;4964646;28;20539;-76
2023/12/03 04:07:52;;;;;;;10.88;4.68;;;-8.60;99.90;;;;;;4947638;28;20054;-76
2023/12/03 04:10:18;;;;;;;12.43;5.13;;;-8.70;99.90;;;;;;4964653;28;20311;-77
2023/12/03 04:12:44;;;;;;;10.85;4.72;;;-8.80;99.90;;;;;;4965067;28;20215;-76
2023/12/03 04:15:10;;;;;;;12.18;5.57;;;-8.90;99.90;;;;;;4964413;28;20039;-77
2023/12/03 04:17:35;;;;;;;10.82;4.95;;;-9.00;99.90;;;;;;4947857;28;20027;-75
2023/12/03 04:20:01;;;;;;;11.65;4.57;;;-9.00;99.90;;;;;;4947511;29;20027;-77
2023/12/03 04:22:27;;;;;;;10.93;5.03;;;-9.10;99.90;;;;;;4947584;29;20023;-76
2023/12/03 04:24:53;;;;;;;12.65;4.97;;;-9.00;99.90;;;;;;4964320;29;20023;-77
2023/12/03 04:27:18;;;;;;;11.63;5.35;;;-9.10;99.90;;;;;;4964811;28;20047;-77
2023/12/03 04:29:44;;;;;;;11.10;3.90;;;-9.20;99.90;;;;;;4964107;28;20035;-77
2023/12/03 04:32:10;;;;;;;15.00;4.88;;;-9.30;99.90;;;;;;4947596;29;20103;-77
2023/12/03 04:34:38;;;;;;;8.48;4.15;;;-9.30;99.90;;;;;;4946772;28;20091;-76
2023/12/03 04:37:04;;;;;;;11.18;4.65;;;-9.20;99.90;;;;;;4964684;28;20030;-77
2023/12/03 04:39:30;;;;;;;11.27;4.68;;;-9.30;99.90;;;;;;4964041;28;20034;-77
2023/12/03 04:41:55;;;;;;;13.13;5.93;;;-8.40;99.90;;;;;;4947539;29;20074;-76
2023/12/03 04:44:21;;;;;;;13.70;5.65;;;-9.00;99.90;;;;;;4947147;29;20045;-77
2023/12/03 04:46:47;;;;;;;11.90;4.32;;;-9.10;99.90;;;;;;4964263;28;20034;-76
2023/12/03 04:49:12;;;;;;;9.10;3.75;;;-9.00;99.90;;;;;;4946906;29;20258;-75
2023/12/03 04:51:38;;;;;;;10.93;5.43;;;-8.80;99.90;;;;;;4949860;28;20051;-77
2023/12/03 04:54:04;;;;;;;11.45;5.35;;;-8.80;99.90;;;;;;4964243;28;20315;-76
2023/12/03 04:56:30;;;;;;;8.65;4.13;;;-8.30;99.90;;;;;;4963927;28;20019;-77
2023/12/03 04:58:55;;;;;;;11.77;5.28;;;-8.90;99.90;;;;;;4964449;28;20023;-76
2023/12/03 05:01:21;;;;;;;11.77;4.93;;;-8.90;99.90;;;;;;4965034;28;20031;-75
2023/12/03 05:03:47;;;;;;;12.10;5.38;;;-9.00;99.90;;;;;;4968308;28;20026;-78
2023/12/03 05:06:13;;;;;;;8.70;3.80;;;-9.00;99.90;;;;;;4966901;28;20086;-77
2023/12/03 05:08:39;;;;;;;10.13;4.70;;;-9.10;99.90;;;;;;4967522;28;20025;-77
2023/12/03 05:11:05;;;;;;;10.60;4.43;;;-9.20;99.90;;;;;;4968092;28;20031;-77
2023/12/03 05:13:32;;;;;;;10.93;4.43;;;-9.30;99.90;;;;;;4968324;28;20087;-75
2023/12/03 05:16:00;;;;;;;9.88;4.13;;;-9.40;99.90;;;;;;4967105;28;20031;-76
2023/12/03 05:18:26;;;;;;;11.82;4.72;;;-9.30;99.90;;;;;;4966717;28;20220;-76
2023/12/03 05:20:51;;;;;;;14.00;5.40;;;-9.10;99.90;;;;;;4967023;28;20015;-77
2023/12/03 05:23:17;;;;;;;8.98;4.22;;;-9.20;99.90;;;;;;4966696;28;20038;-77
2023/12/03 05:25:42;;;;;;;8.57;4.35;;;-9.30;99.90;;;;;;4967891;28;20023;-77
2023/12/03 05:28:08;;;;;;;8.63;4.25;;;-9.40;99.90;;;;;;4966943;28;20098;-77
2023/12/03 05:30:34;;;;;;;11.40;4.68;;;-9.40;99.90;;;;;;4967613;28;20098;-76
2023/12/03 05:33:00;;;;;;;9.00;4.35;;;-9.40;99.90;;;;;;4967778;28;20027;-77
2023/12/03 05:35:25;;;;;;;9.32;5.38;;;-9.40;99.90;;;;;;4967643;28;20373;-76
2023/12/03 05:37:51;;;;;;;10.73;4.88;;;-9.50;99.90;;;;;;4966401;28;20315;-76
2023/12/03 05:40:17;;;;;;;11.80;3.97;;;-9.60;99.90;;;;;;4966453;28;20027;-77
2023/12/03 05:42:42;;;;;;;11.98;4.40;;;-9.70;99.90;;;;;;4966581;28;20213;-76
2023/12/03 05:45:09;;;;;;;11.73;4.72;;;-9.80;99.90;;;;;;4967406;28;20023;-76
2023/12/03 05:47:35;;;;;;;9.18;4.65;;;-9.60;99.90;;;;;;4966335;28;20027;-76
2023/12/03 05:50:02;;;;;;;9.40;3.28;;;-9.60;99.90;;;;;;4967642;28;20315;-77
2023/12/03 05:52:28;;;;;;;10.52;4.53;;;-9.60;99.90;;;;;;4967417;28;20158;-76
2023/12/03 05:54:54;;;;;;;9.73;4.78;;;-9.70;99.90;;;;;;4967485;28;20086;-76
2023/12/03 05:57:20;;;;;;;10.30;4.32;;;-9.70;99.90;;;;;;4950955;29;20050;-76
2023/12/03 05:59:46;;;;;;;11.80;4.85;;;-9.80;99.90;;;;;;4967122;28;20468;-77
2023/12/03 06:02:11;;;;;;;10.23;4.43;;;-9.70;99.90;;;;;;4967438;28;20028;-76
2023/12/03 06:04:37;;;;;;;9.40;4.82;;;-9.70;99.90;;;;;;4949802;28;20094;-77
2023/12/03 06:07:03;;;;;;;8.18;3.83;;;-9.70;99.90;;;;;;4950405;28;20094;-76
2023/12/03 06:09:29;;;;;;;7.57;4.38;;;-9.80;99.90;;;;;;4967160;28;20027;-77
2023/12/03 06:11:54;;;;;;;11.43;5.10;;;-9.80;99.90;;;;;;4967518;28;20024;-76
2023/12/03 06:14:20;;;;;;;9.38;4.28;;;-9.80;99.90;;;;;;4967460;28;20023;-78
2023/12/03 06:16:45;;;;;;;8.55;4.00;;;-9.80;99.90;;;;;;4949553;29;20216;-77
2023/12/03 06:19:11;;;;;;;13.57;4.50;;;-9.70;99.90;;;;;;4967245;28;20019;-76
2023/12/03 06:21:37;;;;;;;10.43;4.55;;;-9.50;99.90;;;;;;4967290;28;20034;-77
2023/12/03 06:24:03;;;;;;;8.10;3.95;;;-9.50;99.90;;;;;;4949458;29;20325;-76
2023/12/03 06:26:28;;;;;;;11.50;4.07;;;-9.60;99.90;;;;;;4966594;28;20035;-77
2023/12/03 06:28:54;;;;;;;8.45;4.25;;;-9.60;99.90;;;;;;4966383;28;20065;-78
2023/12/03 06:31:20;;;;;;;11.82;4.53;;;-9.70;99.90;;;;;;4949211;28;20031;-76
2023/12/03 06:33:46;;;;;;;12.10;4.03;;;-9.80;99.90;;;;;;4949055;28;20208;-76
2023/12/03 06:36:12;;;;;;;8.07;3.58;;;-9.80;99.90;;;;;;4966577;28;20057;-79
2023/12/03 06:38:38;;;;;;;6.78;3.40;;;-9.90;99.90;;;;;;4949567;29;20046;-77
2023/12/03 06:41:03;;;;;;;9.07;3.45;;;-9.70;99.90;;;;;;4949501;29;20315;-77
2023/12/03 06:43:29;;;;;;;6.63;3.80;;;-9.60;99.90;;;;;;4966582;28;20062;-76
2023/12/03 06:45:55;;;;;;;8.48;4.32;;;-9.70;99.90;;;;;;4966510;28;20339;-76
2023/12/03 06:48:21;;;;;;;8.73;3.63;;;-9.80;99.90;;;;;;4966329;28;20023;-77
2023/12/03 06:50:47;;;;;;;8.27;3.65;;;-9.90;99.90;;;;;;4949585;29;20038;-78
2023/12/03 06:53:13;;;;;;;9.93;4.85;;;-10.00;99.90;;;;;;4965113;28;20434;-79
2023/12/03 06:55:38;;;;;;;7.45;3.33;;;-10.00;99.90;;;;;;4966429;28;20091;-77
2023/12/03 06:58:04;;;;;;;10.77;4.97;;;-10.00;99.90;;;;;;4965941;28;20023;-77
2023/12/03 07:00:30;;;;;;;9.18;4.55;;;-10.00;99.90;;;;;;4965149;28;20023;-79
2023/12/03 07:02:56;;;;;;;8.38;4.13;;;-10.00;99.90;;;;;;4965516;28;20307;-77
2023/12/03 07:05:21;;;;;;;110.70;24.30;;;-10.10;99.90;;;;;;4965845;28;20051;-76
2023/12/03 07:07:51;;;;;;;88.35;23.77;;;-10.10;99.90;;;;;;4966218;28;20082;-76
2023/12/03 07:10:17;;;;;;;35.08;9.73;;;-10.20;99.90;;;;;;4966053;28;20028;-81
2023/12/03 07:12:43;;;;;;;19.50;5.60;;;-10.00;99.90;;;;;;4965955;28;20019;-76
2023/12/03 07:15:08;;;;;;;22.60;7.57;;;-10.00;99.90;;;;;;4966451;28;20034;-76
2023/12/03 07:17:34;;;;;;;10.90;5.20;;;-9.90;99.90;;;;;;4965918;28;20031;-76
2023/12/03 07:20:00;;;;;;;17.10;5.97;;;-10.00;99.90;;;;;;4965780;28;20082;-76
2023/12/03 07:22:26;;;;;;;19.52;5.68;;;-9.90;99.90;;;;;;4965937;28;20023;-76
2023/12/03 07:24:53;;;;;;;43.80;14.93;;;-9.90;99.90;;;;;;4964545;28;20066;-77
2023/12/03 07:27:18;;;;;;;21.73;9.15;;;-9.90;99.90;;;;;;4964930;28;20031;-77
2023/12/03 07:29:45;;;;;;;14.45;6.60;;;-9.80;99.90;;;;;;4965673;28;20201;-77
2023/12/03 07:32:10;;;;;;;13.98;5.05;;;-9.80;99.90;;;;;;4964362;28;20023;-77
2023/12/03 07:34:36;;;;;;;10.32;5.05;;;-9.70;99.90;;;;;;4965473;28;20122;-77
2023/12/03 07:37:02;;;;;;;12.60;5.32;;;-9.70;99.90;;;;;;4964310;28;20027;-77
2023/12/03 07:39:28;;;;;;;17.42;5.90;;;-9.60;99.90;;;;;;4965274;28;20031;-78
2023/12/03 07:41:54;;;;;;;12.73;5.38;;;-9.60;99.90;;;;;;4964592;28;20019;-79
2023/12/03 07:44:21;;;;;;;11.65;5.50;;;-9.60;99.90;;;;;;4965305;28;20031;-77
2023/12/03 07:46:47;;;;;;;19.45;6.25;;;-9.70;99.90;;;;;;4965509;28;20019;-78
2023/12/03 07:49:12;;;;;;;18.65;7.45;;;-9.60;99.90;;;;;;4965322;28;20034;-78
2023/12/03 07:51:38;;;;;;;11.73;4.82;;;-9.60;99.90;;;;;;4965529;28;20051;-77
2023/12/03 07:54:04;;;;;;;38.35;13.02;;;-9.50;99.90;;;;;;4965210;28;20032;-77
2023/12/03 07:56:40;;;;;;;22.23;9.35;;;-9.50;99.90;;;;;;4965294;28;20031;-76
2023/12/03 07:59:06;;;;;;;9.95;4.50;;;-9.40;99.90;;;;;;4965270;28;20034;-77
2023/12/03 08:01:32;;;;;;;8.18;4.55;;;-9.30;99.90;;;;;;4965395;28;20327;-78
2023/12/03 08:03:58;;;;;;;13.70;5.40;;;-9.30;99.90;;;;;;4965582;28;20030;-79
2023/12/03 08:06:24;;;;;;;11.07;5.10;;;-9.20;99.90;;;;;;4944696;29;20110;-79
2023/12/03 08:08:52;;;;;;;14.50;5.57;;;-9.10;99.90;;;;;;4956064;28;20070;-78
2023/12/03 08:11:20;;;;;;;10.32;4.65;;;-8.90;99.90;;;;;;4962491;28;20058;-79
2023/12/03 08:13:46;;;;;;;10.48;5.55;;;-8.90;99.90;;;;;;4956780;28;20078;-78
2023/12/03 08:16:13;;;;;;;15.50;6.32;;;-8.90;99.90;;;;;;4965395;28;20082;-77
2023/12/03 08:18:38;;;;;;;9.48;4.47;;;-7.50;99.90;;;;;;4965071;28;20047;-79
2023/12/03 08:21:05;;;;;;;10.88;4.15;;;-8.60;99.90;;;;;;4947799;29;20244;-78
2023/12/03 08:23:32;;;;;;;8.15;3.72;;;-8.40;99.90;;;;;;4947542;28;20031;-80
2023/12/03 08:25:58;;;;;;;15.70;5.75;;;-8.20;99.90;;;;;;4948113;28;20098;-77
2023/12/03 08:28:24;;;;;;;9.90;4.88;;;-8.00;99.90;;;;;;4947774;28;20026;-77
2023/12/03 08:30:49;;;;;;;8.70;4.20;;;-7.90;99.90;;;;;;4965044;28;20031;-75
2023/12/03 08:33:15;;;;;;;10.98;4.85;;;-7.80;99.90;;;;;;4964239;28;20078;-74
2023/12/03 08:35:41;;;;;;;8.80;4.20;;;-7.80;99.90;;;;;;4964387;28;20023;-79
2023/12/03 08:38:07;;;;;;;14.32;5.07;;;-7.60;99.90;;;;;;4948364;28;20154;-76
2023/12/03 08:40:33;;;;;;;10.65;4.43;;;-7.50;99.90;;;;;;4964609;28;20023;-78
2023/12/03 08:42:59;;;;;;;11.15;4.47;;;-7.50;99.90;;;;;;4948059;28;20023;-79
2023/12/03 08:45:25;;;;;;;10.77;5.30;;;-7.40;99.90;;;;;;4948592;29;20023;-77
2023/12/03 08:47:50;;;;;;;14.07;5.70;;;-7.30;99.90;;;;;;4947657;29;20022;-77
2023/12/03 08:50:16;;;;;;;14.35;5.95;;;-7.10;99.90;;;;;;4943534;28;20035;-77
2023/12/03 08:52:42;;;;;;;13.65;6.40;;;-7.00;99.90;;;;;;4964907;28;20047;-78
2023/12/03 08:55:08;;;;;;;11.60;4.68;;;-6.90;99.90;;;;;;4946436;28;20102;-80
2023/12/03 08:57:35;;;;;;;19.50;7.70;;;-6.90;99.90;;;;;;4941920;29;20122;-77
2023/12/03 09:00:00;;;;;;;20.02;8.52;;;-6.80;99.90;;;;;;4961122;28;20063;-78
2023/12/03 09:02:26;;;;;;;8.75;4.70;;;-6.40;99.90;;;;;;4959110;28;20381;-81
2023/12/03 09:04:52;;;;;;;17.60;5.97;;;-6.80;99.90;;;;;;4943660;28;20330;-91
2023/12/03 09:07:17;;;;;;;13.02;6.30;;;-6.60;99.90;;;;;;4946822;28;20019;-79
2023/12/03 09:09:43;;;;;;;13.90;5.60;;;-6.50;99.90;;;;;;4963572;28;20035;-79
2023/12/03 09:12:09;;;;;;;14.32;5.50;;;-6.40;99.90;;;;;;4959416;28;20023;-81
2023/12/03 09:14:35;;;;;;;12.75;5.18;;;-6.40;99.90;;;;;;4943998;29;20027;-79
2023/12/03 09:17:03;;;;;;;13.82;5.60;;;-6.30;99.90;;;;;;4965794;28;20020;-78
2023/12/03 09:19:29;;;;;;;7.33;4.07;;;-6.20;99.90;;;;;;4965674;28;20302;-81
2023/12/03 09:21:55;;;;;;;11.57;4.80;;;-6.10;99.90;;;;;;4948515;29;20049;-79
2023/12/03 09:24:21;;;;;;;11.30;5.70;;;-6.10;99.90;;;;;;4965031;28;20035;-80
2023/12/03 09:26:47;;;;;;;11.80;5.55;;;-6.10;99.90;;;;;;4948676;29;20015;-78
2023/12/03 09:29:13;;;;;;;11.63;6.10;;;-5.90;99.90;;;;;;4967429;28;20215;-79
2023/12/03 09:31:43;;;;;;;11.30;5.32;;;-5.90;99.90;;;;;;4966594;28;20023;-78
2023/12/03 09:34:09;;;;;;;13.18;6.47;;;-5.80;99.90;;;;;;4965454;28;20066;-80
2023/12/03 09:36:35;;;;;;;10.05;4.72;;;-5.70;99.90;;;;;;4964702;28;20129;-79
2023/12/03 09:39:01;;;;;;;10.13;5.38;;;-5.60;99.90;;;;;;4947701;28;20070;-78
2023/12/03 09:41:29;;;;;;;11.60;5.90;;;-5.60;99.90;;;;;;4948213;28;20027;-77
2023/12/03 09:44:01;;;;;;;20.88;8.57;;;-5.40;99.90;;;;;;4948216;29;20062;-78
2023/12/03 09:46:32;;;;;;;24.63;10.80;;;-3.90;99.90;;;;;;4965371;28;20019;-78
2023/12/03 09:49:03;;;;;;;24.00;10.35;;;-5.20;99.90;;;;;;4951900;28;20159;-79
2023/12/03 09:51:32;;;;;;;18.17;8.38;;;-5.10;99.90;;;;;;4968881;28;20043;-77
2023/12/03 09:53:58;;;;;;;18.10;8.43;;;-5.00;99.90;;;;;;4967788;28;20380;-78
2023/12/03 09:56:25;;;;;;;17.13;7.50;;;-4.80;99.90;;;;;;4968990;28;20031;-78
2023/12/03 09:58:51;;;;;;;18.25;8.30;;;-4.70;99.90;;;;;;4951671;29;20038;-80
2023/12/03 10:01:18;;;;;;;14.98;8.07;;;-4.60;99.90;;;;;;4951999;29;20051;-81
2023/12/03 10:03:44;;;;;;;14.02;7.60;;;-4.60;99.90;;;;;;4951886;28;20022;-78
2023/12/03 10:06:11;;;;;;;14.57;6.95;;;-4.00;99.90;;;;;;4951609;28;20149;-78
2023/12/03 10:08:39;;;;;;;14.55;7.50;;;-4.30;99.90;;;;;;4951711;28;20019;-78
2023/12/03 10:11:06;;;;;;;15.00;6.85;;;-4.20;99.90;;;;;;4968785;28;20219;-79
2023/12/03 10:13:34;;;;;;;15.30;7.20;;;-4.00;99.90;;;;;;4951532;28;20334;-77
2023/12/03 10:16:00;;;;;;;12.77;7.03;;;-4.00;99.90;;;;;;4968834;28;20019;-76
2023/12/03 10:18:25;;;;;;;16.27;7.63;;;-3.90;99.90;;;;;;4968487;28;20086;-78
2023/12/03 10:21:12;;;;;;;15.98;7.47;;;-3.80;99.90;;;;;;4951673;29;20053;-79
2023/12/03 10:23:38;;;;;;;18.45;8.30;;;-3.70;99.90;;;;;;4951186;29;20023;-77
2023/12/03 10:26:14;;;;;;;22.83;10.73;;;-3.70;99.90;;;;;;4968447;28;20078;-79
2023/12/03 10:28:41;;;;;;;18.45;8.60;;;-3.70;99.90;;;;;;4945369;28;20028;-78
2023/12/03 10:31:16;;;;;;;14.95;7.85;;;-3.60;99.90;;;;;;4958125;28;20031;-78
2023/12/03 10:33:46;;;;;;;13.43;7.18;;;-3.50;99.90;;;;;;4956701;28;20488;-77
2023/12/03 10:36:12;;;;;;;16.83;7.68;;;-3.30;99.90;;;;;;4940898;28;20032;-77
2023/12/03 10:38:43;;;;;;;18.08;7.90;;;-3.40;99.90;;;;;;4957709;28;20473;-78
2023/12/03 10:41:10;;;;;;;19.77;8.20;;;-3.40;99.90;;;;;;4941204;29;20118;-78
2023/12/03 10:43:40;;;;;;;19.58;8.43;;;-3.40;99.90;;;;;;4957811;28;20054;-79
2023/12/03 10:46:11;;;;;;;18.48;7.43;;;-3.40;99.90;;;;;;4957190;28;20460;-78
2023/12/03 10:48:37;;;;;;;19.85;10.38;;;-3.10;99.90;;;;;;4958460;28;20402;-79
2023/12/03 10:51:05;;;;;;;18.65;8.90;;;-3.20;99.90;;;;;;4940350;29;20043;-79
2023/12/03 10:53:35;;;;;;;23.48;10.02;;;-3.00;99.90;;;;;;4957459;28;20031;-78
2023/12/03 10:56:06;;;;;;;18.48;8.93;;;-1.70;99.90;;;;;;4940490;28;20454;-78
2023/12/03 10:58:38;;;;;;;15.48;8.60;;;-2.90;99.90;;;;;;4939114;29;20030;-78
2023/12/03 11:01:06;;;;;;;17.67;8.35;;;-2.80;99.90;;;;;;4960895;28;20023;-77
2023/12/03 11:03:56;;;;;;;19.63;8.18;;;-2.80;99.90;;;;;;4947744;29;20054;-79
2023/12/03 11:06:25;;;;;;;17.52;8.77;;;-2.80;99.90;;;;;;4959889;28;20024;-77
2023/12/03 11:08:52;;;;;;;17.88;8.48;;;-2.80;99.90;;;;;;4959101;28;20027;-77
2023/12/03 11:11:21;;;;;;;17.38;8.82;;;-2.80;99.90;;;;;;4943128;28;20024;-77
2023/12/03 11:13:57;;;;;;;16.10;8.27;;;-2.00;99.90;;;;;;4942742;29;20031;-78
2023/12/03 11:16:25;;;;;;;18.67;8.13;;;-1.90;99.90;;;;;;4958170;28;20027;-78
2023/12/03 11:19:11;;;;;;;21.35;10.30;;;-1.80;99.90;;;;;;4939904;29;20023;-78
2023/12/03 11:22:11;;;;;;;21.77;10.15;;;-2.50;99.90;;;;;;4942852;29;20031;-78
2023/12/03 11:24:42;;;;;;;18.20;9.45;;;-2.50;99.90;;;;;;4956893;28;20035;-77
2023/12/03 11:27:08;;;;;;;31.95;14.32;;;-2.40;99.90;;;;;;4957153;28;20464;-78
2023/12/03 11:29:52;;;;;;;33.03;17.00;;;-2.30;99.90;;;;;;4956711;28;20047;-78
2023/12/03 11:32:20;;;;;;;31.38;15.40;;;-2.30;99.90;;;;;;4940603;28;20456;-78
2023/12/03 11:35:07;;;;;;;27.30;13.52;;;-2.20;99.90;;;;;;4940189;28;20027;-79
2023/12/03 11:37:33;;;;;;;22.10;11.70;;;-2.10;99.90;;;;;;4939110;28;20166;-78
2023/12/03 11:40:08;;;;;;;19.58;9.63;;;-2.20;99.90;;;;;;4939549;28;20082;-78
2023/12/03 11:42:45;;;;;;;20.08;9.57;;;-2.10;99.90;;;;;;4939726;28;20392;-79
2023/12/03 11:45:27;;;;;;;16.98;10.07;;;-1.80;99.90;;;;;;4958238;28;20016;-79
2023/12/03 11:48:09;;;;;;;23.80;10.57;;;-2.00;99.90;;;;;;4957068;28;20031;-78
2023/12/03 11:50:38;;;;;;;20.17;9.90;;;-1.90;99.90;;;;;;4939592;28;20493;-79
2023/12/03 11:53:05;;;;;;;22.15;9.90;;;-1.70;99.90;;;;;;4956149;28;20043;-77
2023/12/03 11:55:36;;;;;;;21.75;9.82;;;-1.80;99.90;;;;;;4957426;28;20035;-79
2023/12/03 11:58:03;;;;;;;20.58;9.40;;;-1.70;99.90;;;;;;4955327;28;20023;-79
2023/12/03 12:00:28;;;;;;;19.02;9.15;;;-1.60;99.90;;;;;;4957597;28;20030;-78
2023/12/03 12:02:54;;;;;;;19.10;9.75;;;-1.60;99.90;;;;;;4942949;29;20023;-78
2023/12/03 12:05:20;;;;;;;22.45;10.60;;;-0.90;99.90;;;;;;4958920;28;20341;-78
2023/12/03 12:08:00;;;;;;;22.45;10.85;;;-1.60;99.90;;;;;;4956095;28;20473;-77
2023/12/03 12:10:27;;;;;;;20.52;10.18;;;-1.50;99.90;;;;;;4955896;28;20428;-77
2023/12/03 12:12:52;;;;;;;16.00;9.20;;;-1.50;99.90;;;;;;4956062;28;20483;-77
2023/12/03 12:15:18;;;;;;;31.58;11.75;;;-1.50;99.90;;;;;;4938845;29;20032;-78
2023/12/03 12:17:44;;;;;;;25.10;12.05;;;-1.40;99.90;;;;;;4938743;29;20148;-78
2023/12/03 12:20:10;;;;;;;22.35;10.60;;;-1.30;99.90;;;;;;4939422;28;20396;-80
2023/12/03 12:22:37;;;;;;;24.50;11.80;;;-1.30;99.90;;;;;;4956134;28;20106;-79
2023/12/03 12:25:06;;;;;;;22.88;10.75;;;-1.20;99.90;;;;;;4956352;28;20049;-79
2023/12/03 12:27:32;;;;;;;23.73;11.13;;;-1.10;99.90;;;;;;4942211;28;20477;-78
2023/12/03 12:29:58;;;;;;;22.52;10.25;;;-1.10;99.90;;;;;;4956267;28;20130;-78
2023/12/03 12:32:24;;;;;;;21.50;10.98;;;-1.10;99.90;;;;;;4938976;28;20032;-80
2023/12/03 12:34:49;;;;;;;23.63;11.98;;;0.10;99.90;;;;;;4955039;28;20023;-81
2023/12/03 12:37:21;;;;;;;24.52;11.63;;;-0.30;99.90;;;;;;4957582;28;20024;-78